sensor_id;sensor_type;location;lat;lon;timestamp;P1;durP1;ratioP1;P2;durP2;ratioP2
21657;SDS011;10990;48.174;9.782;2023-04-03T00:01:18;11.93;;;7.70;;
21657;SDS011;10990;48.174;9.782;2023-04-03T00:03:44;11.87;;;7.23;;
21657;SDS011;10990;48.174;9.782;2023-04-03T00:06:13;11.10;;;7.30;;
21657;SDS011;10990;48.174;9.782;2023-04-03T00:08:40;12.43;;;7.47;;
21657;SDS011;10990;48.174;9.782;2023-04-03T00:11:07;11.20;;;7.23;;
21657;SDS011;10990;48.174;9.782;2023-04-03T00:13:35;9.63;;;6.90;;
21657;SDS011;10990;48.174;9.782;2023-04-03T00:16:01;12.03;;;7.57;;
21657;SDS011;10990;48.174;9.782;2023-04-03T00:18:28;11.93;;;7.77;;
21657;SDS011;10990;48.174;9.782;2023-04-03T00:20:55;10.13;;;7.27;;
21657;SDS011;10990;48.174;9.782;2023-04-03T00:23:24;11.20;;;7.57;;
21657;SDS011;10990;48.174;9.782;2023-04-03T00:25:51;12.07;;;7.80;;
21657;SDS011;10990;48.174;9.782;2023-04-03T00:28:18;12.00;;;7.43;;
21657;SDS011;10990;48.174;9.782;2023-04-03T00:30:45;12.00;;;7.77;;
21657;SDS011;10990;48.174;9.782;2023-04-03T00:33:12;13.13;;;8.00;;
21657;SDS011;10990;48.174;9.782;2023-04-03T00:35:39;11.43;;;7.43;;
21657;SDS011;10990;48.174;9.782;2023-04-03T00:38:06;12.77;;;8.23;;
21657;SDS011;10990;48.174;9.782;2023-04-03T00:40:35;12.10;;;8.30;;
21657;SDS011;10990;48.174;9.782;2023-04-03T00:43:10;12.33;;;8.30;;
21657;SDS011;10990;48.174;9.782;2023-04-03T00:45:40;16.63;;;8.37;;
21657;SDS011;10990;48.174;9.782;2023-04-03T00:48:10;11.40;;;7.80;;
21657;SDS011;10990;48.174;9.782;2023-04-03T00:50:40;10.83;;;7.70;;
21657;SDS011;10990;48.174;9.782;2023-04-03T00:53:09;11.87;;;7.80;;
21657;SDS011;10990;48.174;9.782;2023-04-03T00:55:39;12.40;;;7.90;;
21657;SDS011;10990;48.174;9.782;2023-04-03T00:58:09;11.33;;;7.67;;
21657;SDS011;10990;48.174;9.782;2023-04-03T01:00:38;11.47;;;7.50;;
21657;SDS011;10990;48.174;9.782;2023-04-03T01:03:09;10.77;;;7.70;;
21657;SDS011;10990;48.174;9.782;2023-04-03T01:05:38;14.13;;;7.83;;
21657;SDS011;10990;48.174;9.782;2023-04-03T01:08:06;12.10;;;7.90;;
21657;SDS011;10990;48.174;9.782;2023-04-03T01:10:33;10.40;;;7.07;;
21657;SDS011;10990;48.174;9.782;2023-04-03T01:13:01;11.53;;;7.77;;
21657;SDS011;10990;48.174;9.782;2023-04-03T01:15:45;10.03;;;6.90;;
21657;SDS011;10990;48.174;9.782;2023-04-03T01:18:12;10.57;;;7.03;;
21657;SDS011;10990;48.174;9.782;2023-04-03T01:21:05;8.80;;;6.50;;
21657;SDS011;10990;48.174;9.782;2023-04-03T01:23:58;9.97;;;6.90;;
21657;SDS011;10990;48.174;9.782;2023-04-03T01:26:35;9.70;;;6.53;;
21657;SDS011;10990;48.174;9.782;2023-04-03T01:29:03;10.40;;;5.97;;
21657;SDS011;10990;48.174;9.782;2023-04-03T01:31:31;9.47;;;6.10;;
21657;SDS011;10990;48.174;9.782;2023-04-03T01:34:10;7.43;;;5.40;;
21657;SDS011;10990;48.174;9.782;2023-04-03T01:36:37;8.43;;;5.80;;
21657;SDS011;10990;48.174;9.782;2023-04-03T01:39:05;8.77;;;5.57;;
21657;SDS011;10990;48.174;9.782;2023-04-03T01:41:32;8.47;;;5.80;;
21657;SDS011;10990;48.174;9.782;2023-04-03T01:44:07;7.83;;;5.67;;
21657;SDS011;10990;48.174;9.782;2023-04-03T01:46:34;8.17;;;5.67;;
21657;SDS011;10990;48.174;9.782;2023-04-03T01:49:04;8.33;;;5.27;;
21657;SDS011;10990;48.174;9.782;2023-04-03T01:51:31;8.83;;;6.00;;
21657;SDS011;10990;48.174;9.782;2023-04-03T01:53:58;8.73;;;5.73;;
21657;SDS011;10990;48.174;9.782;2023-04-03T01:56:25;7.70;;;5.50;;
21657;SDS011;10990;48.174;9.782;2023-04-03T01:58:52;8.17;;;5.80;;
21657;SDS011;10990;48.174;9.782;2023-04-03T02:01:19;8.40;;;5.97;;
21657;SDS011;10990;48.174;9.782;2023-04-03T02:03:46;9.13;;;5.40;;
21657;SDS011;10990;48.174;9.782;2023-04-03T02:06:15;8.20;;;5.40;;
21657;SDS011;10990;48.174;9.782;2023-04-03T02:08:41;7.60;;;5.33;;
21657;SDS011;10990;48.174;9.782;2023-04-03T02:11:08;7.97;;;4.77;;
21657;SDS011;10990;48.174;9.782;2023-04-03T02:13:35;7.10;;;5.40;;
21657;SDS011;10990;48.174;9.782;2023-04-03T02:16:06;5.10;;;4.00;;
21657;SDS011;10990;48.174;9.782;2023-04-03T02:18:33;8.80;;;4.60;;
21657;SDS011;10990;48.174;9.782;2023-04-03T02:21:01;6.37;;;4.63;;
21657;SDS011;10990;48.174;9.782;2023-04-03T02:23:29;7.60;;;4.50;;
21657;SDS011;10990;48.174;9.782;2023-04-03T02:26:02;5.83;;;4.23;;
21657;SDS011;10990;48.174;9.782;2023-04-03T02:28:31;7.03;;;4.83;;
21657;SDS011;10990;48.174;9.782;2023-04-03T02:30:58;9.10;;;5.03;;
21657;SDS011;10990;48.174;9.782;2023-04-03T02:33:25;6.60;;;4.97;;
21657;SDS011;10990;48.174;9.782;2023-04-03T02:35:53;6.93;;;4.23;;
21657;SDS011;10990;48.174;9.782;2023-04-03T02:38:21;8.47;;;4.30;;
21657;SDS011;10990;48.174;9.782;2023-04-03T02:40:49;7.80;;;4.30;;
21657;SDS011;10990;48.174;9.782;2023-04-03T02:43:17;6.97;;;4.43;;
21657;SDS011;10990;48.174;9.782;2023-04-03T02:45:44;6.87;;;4.40;;
21657;SDS011;10990;48.174;9.782;2023-04-03T02:48:11;5.50;;;3.93;;
21657;SDS011;10990;48.174;9.782;2023-04-03T02:50:37;4.00;;;3.23;;
21657;SDS011;10990;48.174;9.782;2023-04-03T02:53:04;5.37;;;3.80;;
21657;SDS011;10990;48.174;9.782;2023-04-03T02:55:31;7.27;;;3.37;;
21657;SDS011;10990;48.174;9.782;2023-04-03T02:57:59;7.77;;;3.40;;
21657;SDS011;10990;48.174;9.782;2023-04-03T03:00:26;6.57;;;3.87;;
21657;SDS011;10990;48.174;9.782;2023-04-03T03:02:53;5.30;;;3.80;;
21657;SDS011;10990;48.174;9.782;2023-04-03T03:05:19;5.67;;;3.93;;
21657;SDS011;10990;48.174;9.782;2023-04-03T03:07:46;6.00;;;4.30;;
21657;SDS011;10990;48.174;9.782;2023-04-03T03:10:13;6.47;;;3.83;;
21657;SDS011;10990;48.174;9.782;2023-04-03T03:12:40;5.37;;;3.77;;
21657;SDS011;10990;48.174;9.782;2023-04-03T03:15:09;6.17;;;4.07;;
21657;SDS011;10990;48.174;9.782;2023-04-03T03:17:36;6.17;;;4.10;;
21657;SDS011;10990;48.174;9.782;2023-04-03T03:20:03;5.47;;;3.80;;
21657;SDS011;10990;48.174;9.782;2023-04-03T03:22:31;5.67;;;3.70;;
21657;SDS011;10990;48.174;9.782;2023-04-03T03:24:58;5.03;;;3.80;;
21657;SDS011;10990;48.174;9.782;2023-04-03T03:27:26;6.63;;;4.00;;
21657;SDS011;10990;48.174;9.782;2023-04-03T03:29:52;5.87;;;3.80;;
21657;SDS011;10990;48.174;9.782;2023-04-03T03:32:21;6.13;;;3.90;;
21657;SDS011;10990;48.174;9.782;2023-04-03T03:34:48;5.47;;;4.00;;
21657;SDS011;10990;48.174;9.782;2023-04-03T03:37:15;5.17;;;3.80;;
21657;SDS011;10990;48.174;9.782;2023-04-03T03:39:42;7.03;;;4.50;;
21657;SDS011;10990;48.174;9.782;2023-04-03T03:42:08;5.50;;;4.30;;
21657;SDS011;10990;48.174;9.782;2023-04-03T03:44:36;4.60;;;3.80;;
21657;SDS011;10990;48.174;9.782;2023-04-03T03:47:03;7.30;;;4.73;;
21657;SDS011;10990;48.174;9.782;2023-04-03T03:49:32;7.23;;;4.60;;
21657;SDS011;10990;48.174;9.782;2023-04-03T03:52:00;5.87;;;4.47;;
21657;SDS011;10990;48.174;9.782;2023-04-03T03:54:27;6.67;;;4.70;;
21657;SDS011;10990;48.174;9.782;2023-04-03T03:56:53;8.23;;;4.90;;
21657;SDS011;10990;48.174;9.782;2023-04-03T03:59:23;9.60;;;4.50;;
21657;SDS011;10990;48.174;9.782;2023-04-03T04:01:50;6.37;;;4.37;;
21657;SDS011;10990;48.174;9.782;2023-04-03T04:04:17;6.43;;;4.50;;
21657;SDS011;10990;48.174;9.782;2023-04-03T04:06:45;7.67;;;4.70;;
21657;SDS011;10990;48.174;9.782;2023-04-03T04:09:12;7.07;;;4.30;;
21657;SDS011;10990;48.174;9.782;2023-04-03T04:11:39;5.67;;;3.93;;
21657;SDS011;10990;48.174;9.782;2023-04-03T04:14:09;5.97;;;4.07;;
21657;SDS011;10990;48.174;9.782;2023-04-03T04:16:37;7.13;;;4.70;;
21657;SDS011;10990;48.174;9.782;2023-04-03T04:19:09;6.60;;;3.90;;
21657;SDS011;10990;48.174;9.782;2023-04-03T04:21:37;6.93;;;4.20;;
21657;SDS011;10990;48.174;9.782;2023-04-03T04:24:07;6.20;;;4.03;;
21657;SDS011;10990;48.174;9.782;2023-04-03T04:26:34;5.60;;;4.20;;
21657;SDS011;10990;48.174;9.782;2023-04-03T04:29:01;7.37;;;4.40;;
21657;SDS011;10990;48.174;9.782;2023-04-03T04:31:31;6.40;;;4.50;;
21657;SDS011;10990;48.174;9.782;2023-04-03T04:33:58;6.43;;;4.17;;
21657;SDS011;10990;48.174;9.782;2023-04-03T04:36:25;6.90;;;4.27;;
21657;SDS011;10990;48.174;9.782;2023-04-03T04:38:52;5.07;;;3.83;;
21657;SDS011;10990;48.174;9.782;2023-04-03T04:41:21;5.93;;;3.83;;
21657;SDS011;10990;48.174;9.782;2023-04-03T04:43:51;5.67;;;3.80;;
21657;SDS011;10990;48.174;9.782;2023-04-03T04:46:19;5.93;;;3.43;;
21657;SDS011;10990;48.174;9.782;2023-04-03T04:48:51;4.10;;;3.20;;
21657;SDS011;10990;48.174;9.782;2023-04-03T04:51:19;5.23;;;3.37;;
21657;SDS011;10990;48.174;9.782;2023-04-03T04:53:46;5.50;;;3.20;;
21657;SDS011;10990;48.174;9.782;2023-04-03T04:56:15;4.83;;;3.37;;
21657;SDS011;10990;48.174;9.782;2023-04-03T04:58:44;4.97;;;3.07;;
21657;SDS011;10990;48.174;9.782;2023-04-03T05:01:11;4.00;;;2.70;;
21657;SDS011;10990;48.174;9.782;2023-04-03T05:03:47;3.77;;;2.73;;
21657;SDS011;10990;48.174;9.782;2023-04-03T05:06:15;3.73;;;2.70;;
21657;SDS011;10990;48.174;9.782;2023-04-03T05:08:42;4.63;;;2.40;;
21657;SDS011;10990;48.174;9.782;2023-04-03T05:11:09;3.67;;;2.87;;
21657;SDS011;10990;48.174;9.782;2023-04-03T05:13:36;6.03;;;3.30;;
21657;SDS011;10990;48.174;9.782;2023-04-03T05:16:05;3.30;;;2.70;;
21657;SDS011;10990;48.174;9.782;2023-04-03T05:18:33;9.07;;;2.70;;
21657;SDS011;10990;48.174;9.782;2023-04-03T05:21:05;4.90;;;2.70;;
21657;SDS011;10990;48.174;9.782;2023-04-03T05:23:31;3.87;;;2.83;;
21657;SDS011;10990;48.174;9.782;2023-04-03T05:26:01;4.13;;;2.63;;
21657;SDS011;10990;48.174;9.782;2023-04-03T05:28:29;3.50;;;2.60;;
21657;SDS011;10990;48.174;9.782;2023-04-03T05:30:56;5.20;;;2.90;;
21657;SDS011;10990;48.174;9.782;2023-04-03T05:33:30;5.00;;;2.80;;
21657;SDS011;10990;48.174;9.782;2023-04-03T05:36:01;4.20;;;2.80;;
21657;SDS011;10990;48.174;9.782;2023-04-03T05:38:31;4.67;;;2.73;;
21657;SDS011;10990;48.174;9.782;2023-04-03T05:40:58;4.33;;;2.67;;
21657;SDS011;10990;48.174;9.782;2023-04-03T05:43:26;3.37;;;2.67;;
21657;SDS011;10990;48.174;9.782;2023-04-03T05:45:53;4.57;;;2.67;;
21657;SDS011;10990;48.174;9.782;2023-04-03T05:48:22;4.93;;;3.00;;
21657;SDS011;10990;48.174;9.782;2023-04-03T05:50:50;3.53;;;2.70;;
21657;SDS011;10990;48.174;9.782;2023-04-03T05:53:23;4.63;;;2.50;;
21657;SDS011;10990;48.174;9.782;2023-04-03T05:55:55;4.27;;;2.83;;
21657;SDS011;10990;48.174;9.782;2023-04-03T05:58:23;5.40;;;2.77;;
21657;SDS011;10990;48.174;9.782;2023-04-03T06:00:51;5.30;;;2.87;;
21657;SDS011;10990;48.174;9.782;2023-04-03T06:03:18;4.50;;;3.13;;
21657;SDS011;10990;48.174;9.782;2023-04-03T06:05:44;4.97;;;2.70;;
21657;SDS011;10990;48.174;9.782;2023-04-03T06:08:12;5.13;;;3.23;;
21657;SDS011;10990;48.174;9.782;2023-04-03T06:10:40;3.83;;;2.90;;
21657;SDS011;10990;48.174;9.782;2023-04-03T06:13:07;4.97;;;3.07;;
21657;SDS011;10990;48.174;9.782;2023-04-03T06:15:33;4.57;;;3.03;;
21657;SDS011;10990;48.174;9.782;2023-04-03T06:18:00;6.73;;;4.70;;
21657;SDS011;10990;48.174;9.782;2023-04-03T06:20:27;6.43;;;3.27;;
21657;SDS011;10990;48.174;9.782;2023-04-03T06:22:54;6.27;;;3.20;;
21657;SDS011;10990;48.174;9.782;2023-04-03T06:25:22;4.53;;;3.17;;
21657;SDS011;10990;48.174;9.782;2023-04-03T06:27:48;7.50;;;3.90;;
21657;SDS011;10990;48.174;9.782;2023-04-03T06:30:16;6.50;;;3.40;;
21657;SDS011;10990;48.174;9.782;2023-04-03T06:32:43;5.63;;;3.30;;
21657;SDS011;10990;48.174;9.782;2023-04-03T06:35:10;5.13;;;3.37;;
21657;SDS011;10990;48.174;9.782;2023-04-03T06:37:36;5.80;;;2.90;;
21657;SDS011;10990;48.174;9.782;2023-04-03T06:40:03;4.77;;;2.97;;
21657;SDS011;10990;48.174;9.782;2023-04-03T06:42:32;4.83;;;2.87;;
21657;SDS011;10990;48.174;9.782;2023-04-03T06:45:07;4.00;;;2.90;;
21657;SDS011;10990;48.174;9.782;2023-04-03T06:47:36;5.33;;;3.00;;
21657;SDS011;10990;48.174;9.782;2023-04-03T06:50:03;5.90;;;3.00;;
21657;SDS011;10990;48.174;9.782;2023-04-03T06:52:31;6.33;;;3.00;;
21657;SDS011;10990;48.174;9.782;2023-04-03T06:54:58;4.73;;;3.10;;
21657;SDS011;10990;48.174;9.782;2023-04-03T06:57:25;5.03;;;3.07;;
21657;SDS011;10990;48.174;9.782;2023-04-03T06:59:53;5.40;;;2.87;;
21657;SDS011;10990;48.174;9.782;2023-04-03T07:02:20;4.97;;;3.43;;
21657;SDS011;10990;48.174;9.782;2023-04-03T07:04:47;5.13;;;3.30;;
21657;SDS011;10990;48.174;9.782;2023-04-03T07:07:14;4.80;;;3.10;;
21657;SDS011;10990;48.174;9.782;2023-04-03T07:09:42;4.00;;;2.90;;
21657;SDS011;10990;48.174;9.782;2023-04-03T07:12:09;6.47;;;3.40;;
21657;SDS011;10990;48.174;9.782;2023-04-03T07:14:36;5.70;;;3.07;;
21657;SDS011;10990;48.174;9.782;2023-04-03T07:17:04;7.17;;;3.37;;
21657;SDS011;10990;48.174;9.782;2023-04-03T07:19:31;5.30;;;3.47;;
21657;SDS011;10990;48.174;9.782;2023-04-03T07:21:58;8.57;;;3.60;;
21657;SDS011;10990;48.174;9.782;2023-04-03T07:24:25;6.60;;;3.63;;
21657;SDS011;10990;48.174;9.782;2023-04-03T07:26:52;3.70;;;2.90;;
21657;SDS011;10990;48.174;9.782;2023-04-03T07:29:19;4.93;;;3.53;;
21657;SDS011;10990;48.174;9.782;2023-04-03T07:31:46;5.40;;;3.40;;
21657;SDS011;10990;48.174;9.782;2023-04-03T07:34:14;5.50;;;3.53;;
21657;SDS011;10990;48.174;9.782;2023-04-03T07:36:41;8.27;;;3.70;;
21657;SDS011;10990;48.174;9.782;2023-04-03T07:39:08;5.00;;;3.17;;
21657;SDS011;10990;48.174;9.782;2023-04-03T07:41:36;4.60;;;3.37;;
21657;SDS011;10990;48.174;9.782;2023-04-03T07:44:03;6.00;;;3.90;;
21657;SDS011;10990;48.174;9.782;2023-04-03T07:46:30;6.20;;;3.70;;
21657;SDS011;10990;48.174;9.782;2023-04-03T07:48:57;7.70;;;3.40;;
21657;SDS011;10990;48.174;9.782;2023-04-03T07:51:25;5.57;;;3.30;;
21657;SDS011;10990;48.174;9.782;2023-04-03T07:53:53;5.50;;;3.77;;
21657;SDS011;10990;48.174;9.782;2023-04-03T07:56:20;6.10;;;3.67;;
21657;SDS011;10990;48.174;9.782;2023-04-03T07:58:47;5.63;;;3.80;;
21657;SDS011;10990;48.174;9.782;2023-04-03T08:01:14;6.80;;;3.80;;
21657;SDS011;10990;48.174;9.782;2023-04-03T08:03:41;7.60;;;3.87;;
21657;SDS011;10990;48.174;9.782;2023-04-03T08:06:08;7.10;;;4.03;;
21657;SDS011;10990;48.174;9.782;2023-04-03T08:08:37;5.43;;;3.87;;
21657;SDS011;10990;48.174;9.782;2023-04-03T08:11:04;7.83;;;4.13;;
21657;SDS011;10990;48.174;9.782;2023-04-03T08:13:31;7.07;;;3.73;;
21657;SDS011;10990;48.174;9.782;2023-04-03T08:16:06;6.13;;;3.90;;
21657;SDS011;10990;48.174;9.782;2023-04-03T08:18:34;14.00;;;6.17;;
21657;SDS011;10990;48.174;9.782;2023-04-03T08:21:04;11.30;;;5.90;;
21657;SDS011;10990;48.174;9.782;2023-04-03T08:23:32;5.73;;;3.77;;
21657;SDS011;10990;48.174;9.782;2023-04-03T08:26:00;7.37;;;3.70;;
21657;SDS011;10990;48.174;9.782;2023-04-03T08:28:32;7.00;;;4.23;;
21657;SDS011;10990;48.174;9.782;2023-04-03T08:31:02;8.67;;;4.27;;
21657;SDS011;10990;48.174;9.782;2023-04-03T08:33:31;8.17;;;4.10;;
21657;SDS011;10990;48.174;9.782;2023-04-03T08:35:57;7.70;;;4.07;;
21657;SDS011;10990;48.174;9.782;2023-04-03T08:38:24;7.87;;;4.07;;
21657;SDS011;10990;48.174;9.782;2023-04-03T08:41:00;6.73;;;4.30;;
21657;SDS011;10990;48.174;9.782;2023-04-03T08:43:33;7.13;;;4.00;;
21657;SDS011;10990;48.174;9.782;2023-04-03T08:46:05;6.53;;;4.00;;
21657;SDS011;10990;48.174;9.782;2023-04-03T08:48:36;6.03;;;3.80;;
21657;SDS011;10990;48.174;9.782;2023-04-03T08:51:09;7.87;;;3.90;;
21657;SDS011;10990;48.174;9.782;2023-04-03T08:53:40;5.73;;;3.90;;
21657;SDS011;10990;48.174;9.782;2023-04-03T08:56:12;6.20;;;3.83;;
21657;SDS011;10990;48.174;9.782;2023-04-03T08:58:45;5.40;;;3.87;;
21657;SDS011;10990;48.174;9.782;2023-04-03T09:01:17;5.00;;;3.40;;
21657;SDS011;10990;48.174;9.782;2023-04-03T09:03:46;6.13;;;4.17;;
21657;SDS011;10990;48.174;9.782;2023-04-03T09:06:14;6.77;;;3.80;;
21657;SDS011;10990;48.174;9.782;2023-04-03T09:08:46;6.40;;;3.33;;
21657;SDS011;10990;48.174;9.782;2023-04-03T09:11:21;5.50;;;3.60;;
21657;SDS011;10990;48.174;9.782;2023-04-03T09:13:52;5.97;;;3.50;;
21657;SDS011;10990;48.174;9.782;2023-04-03T09:16:28;6.47;;;3.47;;
21657;SDS011;10990;48.174;9.782;2023-04-03T09:19:04;5.43;;;3.23;;
21657;SDS011;10990;48.174;9.782;2023-04-03T09:21:40;4.93;;;3.10;;
21657;SDS011;10990;48.174;9.782;2023-04-03T09:24:09;5.67;;;2.80;;
21657;SDS011;10990;48.174;9.782;2023-04-03T09:26:40;4.87;;;3.00;;
21657;SDS011;10990;48.174;9.782;2023-04-03T09:29:10;6.50;;;2.83;;
21657;SDS011;10990;48.174;9.782;2023-04-03T09:31:43;3.93;;;3.00;;
21657;SDS011;10990;48.174;9.782;2023-04-03T09:34:13;5.40;;;2.80;;
21657;SDS011;10990;48.174;9.782;2023-04-03T09:36:46;6.33;;;3.17;;
21657;SDS011;10990;48.174;9.782;2023-04-03T09:39:16;4.80;;;3.30;;
21657;SDS011;10990;48.174;9.782;2023-04-03T09:41:56;4.60;;;3.20;;
21657;SDS011;10990;48.174;9.782;2023-04-03T09:44:25;4.70;;;2.90;;
21657;SDS011;10990;48.174;9.782;2023-04-03T09:46:53;5.93;;;3.00;;
21657;SDS011;10990;48.174;9.782;2023-04-03T09:49:20;4.00;;;2.87;;
21657;SDS011;10990;48.174;9.782;2023-04-03T09:51:46;5.17;;;2.97;;
21657;SDS011;10990;48.174;9.782;2023-04-03T09:54:24;4.33;;;2.93;;
21657;SDS011;10990;48.174;9.782;2023-04-03T09:56:57;5.67;;;3.40;;
21657;SDS011;10990;48.174;9.782;2023-04-03T09:59:28;6.13;;;3.03;;
21657;SDS011;10990;48.174;9.782;2023-04-03T10:01:58;3.97;;;3.10;;
21657;SDS011;10990;48.174;9.782;2023-04-03T10:04:26;5.47;;;3.23;;
21657;SDS011;10990;48.174;9.782;2023-04-03T10:07:04;5.00;;;3.10;;
21657;SDS011;10990;48.174;9.782;2023-04-03T10:09:57;4.33;;;3.00;;
21657;SDS011;10990;48.174;9.782;2023-04-03T10:12:26;4.97;;;2.87;;
21657;SDS011;10990;48.174;9.782;2023-04-03T10:14:54;4.73;;;2.83;;
21657;SDS011;10990;48.174;9.782;2023-04-03T10:17:23;5.70;;;3.47;;
21657;SDS011;10990;48.174;9.782;2023-04-03T10:20:00;4.77;;;2.40;;
21657;SDS011;10990;48.174;9.782;2023-04-03T10:22:39;4.13;;;2.70;;
21657;SDS011;10990;48.174;9.782;2023-04-03T10:25:14;3.20;;;2.60;;
21657;SDS011;10990;48.174;9.782;2023-04-03T10:27:50;4.53;;;2.50;;
21657;SDS011;10990;48.174;9.782;2023-04-03T10:30:29;3.60;;;2.63;;
21657;SDS011;10990;48.174;9.782;2023-04-03T10:33:05;3.13;;;2.63;;
21657;SDS011;10990;48.174;9.782;2023-04-03T10:35:47;5.17;;;3.23;;
21657;SDS011;10990;48.174;9.782;2023-04-03T10:38:24;5.13;;;3.30;;
21657;SDS011;10990;48.174;9.782;2023-04-03T10:41:00;5.00;;;2.90;;
21657;SDS011;10990;48.174;9.782;2023-04-03T10:43:36;4.30;;;3.17;;
21657;SDS011;10990;48.174;9.782;2023-04-03T10:46:09;3.87;;;2.90;;
21657;SDS011;10990;48.174;9.782;2023-04-03T10:48:48;6.13;;;2.70;;
21657;SDS011;10990;48.174;9.782;2023-04-03T10:51:24;3.80;;;2.83;;
21657;SDS011;10990;48.174;9.782;2023-04-03T10:53:59;5.53;;;2.77;;
21657;SDS011;10990;48.174;9.782;2023-04-03T10:56:32;5.13;;;2.50;;
21657;SDS011;10990;48.174;9.782;2023-04-03T10:59:13;8.67;;;3.20;;
21657;SDS011;10990;48.174;9.782;2023-04-03T11:01:45;4.90;;;3.20;;
21657;SDS011;10990;48.174;9.782;2023-04-03T11:04:15;5.70;;;3.07;;
21657;SDS011;10990;48.174;9.782;2023-04-03T11:06:45;4.60;;;2.80;;
21657;SDS011;10990;48.174;9.782;2023-04-03T11:09:22;6.33;;;3.40;;
21657;SDS011;10990;48.174;9.782;2023-04-03T11:11:51;4.57;;;2.80;;
21657;SDS011;10990;48.174;9.782;2023-04-03T11:14:24;6.50;;;3.10;;
21657;SDS011;10990;48.174;9.782;2023-04-03T11:16:57;4.17;;;3.00;;
21657;SDS011;10990;48.174;9.782;2023-04-03T11:19:33;6.10;;;2.97;;
21657;SDS011;10990;48.174;9.782;2023-04-03T11:22:05;3.60;;;2.97;;
21657;SDS011;10990;48.174;9.782;2023-04-03T11:24:39;4.90;;;3.20;;
21657;SDS011;10990;48.174;9.782;2023-04-03T11:27:11;5.07;;;3.30;;
21657;SDS011;10990;48.174;9.782;2023-04-03T11:29:43;4.80;;;3.03;;
21657;SDS011;10990;48.174;9.782;2023-04-03T11:32:20;5.97;;;3.10;;
21657;SDS011;10990;48.174;9.782;2023-04-03T11:35:00;5.93;;;3.90;;
21657;SDS011;10990;48.174;9.782;2023-04-03T11:37:31;8.00;;;3.07;;
21657;SDS011;10990;48.174;9.782;2023-04-03T11:40:03;3.40;;;2.60;;
21657;SDS011;10990;48.174;9.782;2023-04-03T11:42:34;3.57;;;2.90;;
21657;SDS011;10990;48.174;9.782;2023-04-03T11:45:17;4.23;;;2.87;;
21657;SDS011;10990;48.174;9.782;2023-04-03T11:47:52;4.63;;;3.20;;
21657;SDS011;10990;48.174;9.782;2023-04-03T11:50:39;5.17;;;2.90;;
21657;SDS011;10990;48.174;9.782;2023-04-03T11:56:27;3.57;;;2.53;;
21657;SDS011;10990;48.174;9.782;2023-04-03T12:01:49;3.93;;;2.47;;
21657;SDS011;10990;48.174;9.782;2023-04-03T12:04:18;4.93;;;2.60;;
21657;SDS011;10990;48.174;9.782;2023-04-03T12:12:39;4.17;;;2.73;;
21657;SDS011;10990;48.174;9.782;2023-04-03T12:21:24;4.43;;;2.70;;
21657;SDS011;10990;48.174;9.782;2023-04-03T12:24:26;4.77;;;2.13;;
21657;SDS011;10990;48.174;9.782;2023-04-03T12:27:05;5.30;;;2.33;;
21657;SDS011;10990;48.174;9.782;2023-04-03T12:29:46;4.37;;;2.40;;
21657;SDS011;10990;48.174;9.782;2023-04-03T12:32:21;3.90;;;2.50;;
21657;SDS011;10990;48.174;9.782;2023-04-03T12:35:07;3.90;;;2.60;;
21657;SDS011;10990;48.174;9.782;2023-04-03T12:37:48;4.40;;;2.90;;
21657;SDS011;10990;48.174;9.782;2023-04-03T12:40:27;3.70;;;2.60;;
21657;SDS011;10990;48.174;9.782;2023-04-03T12:43:02;4.27;;;2.73;;
21657;SDS011;10990;48.174;9.782;2023-04-03T12:45:44;5.00;;;2.77;;
21657;SDS011;10990;48.174;9.782;2023-04-03T12:48:15;5.23;;;2.90;;
21657;SDS011;10990;48.174;9.782;2023-04-03T12:50:45;5.50;;;2.80;;
21657;SDS011;10990;48.174;9.782;2023-04-03T12:53:13;4.23;;;2.83;;
21657;SDS011;10990;48.174;9.782;2023-04-03T12:55:44;5.87;;;3.80;;
21657;SDS011;10990;48.174;9.782;2023-04-03T12:58:20;4.47;;;2.93;;
21657;SDS011;10990;48.174;9.782;2023-04-03T13:00:59;4.57;;;2.60;;
21657;SDS011;10990;48.174;9.782;2023-04-03T13:03:27;4.77;;;2.70;;
21657;SDS011;10990;48.174;9.782;2023-04-03T13:05:55;4.13;;;2.50;;
21657;SDS011;10990;48.174;9.782;2023-04-03T13:08:26;4.10;;;2.70;;
21657;SDS011;10990;48.174;9.782;2023-04-03T13:10:54;4.83;;;3.00;;
21657;SDS011;10990;48.174;9.782;2023-04-03T13:13:25;5.60;;;3.13;;
21657;SDS011;10990;48.174;9.782;2023-04-03T13:15:52;6.07;;;3.50;;
21657;SDS011;10990;48.174;9.782;2023-04-03T13:18:22;4.90;;;3.13;;
21657;SDS011;10990;48.174;9.782;2023-04-03T13:20:51;5.68;;;3.15;;
21657;SDS011;10990;48.174;9.782;2023-04-03T13:23:19;6.87;;;2.77;;
21657;SDS011;10990;48.174;9.782;2023-04-03T13:25:48;5.20;;;2.80;;
21657;SDS011;10990;48.174;9.782;2023-04-03T13:28:18;6.53;;;2.77;;
21657;SDS011;10990;48.174;9.782;2023-04-03T13:30:55;4.80;;;2.83;;
21657;SDS011;10990;48.174;9.782;2023-04-03T13:33:28;5.03;;;2.70;;
21657;SDS011;10990;48.174;9.782;2023-04-03T13:35:58;4.63;;;2.47;;
21657;SDS011;10990;48.174;9.782;2023-04-03T13:38:29;4.83;;;2.60;;
21657;SDS011;10990;48.174;9.782;2023-04-03T13:40:59;3.77;;;2.70;;
21657;SDS011;10990;48.174;9.782;2023-04-03T13:43:29;4.80;;;2.83;;
21657;SDS011;10990;48.174;9.782;2023-04-03T13:46:00;4.83;;;3.03;;
21657;SDS011;10990;48.174;9.782;2023-04-03T13:48:36;4.53;;;2.57;;
21657;SDS011;10990;48.174;9.782;2023-04-03T13:51:06;4.13;;;2.83;;
21657;SDS011;10990;48.174;9.782;2023-04-03T13:53:44;5.43;;;2.87;;
21657;SDS011;10990;48.174;9.782;2023-04-03T13:56:16;4.73;;;3.07;;
21657;SDS011;10990;48.174;9.782;2023-04-03T13:58:54;4.77;;;2.63;;
21657;SDS011;10990;48.174;9.782;2023-04-03T14:01:23;5.37;;;2.90;;
21657;SDS011;10990;48.174;9.782;2023-04-03T14:03:54;4.83;;;2.80;;
21657;SDS011;10990;48.174;9.782;2023-04-03T14:06:23;5.80;;;2.47;;
21657;SDS011;10990;48.174;9.782;2023-04-03T14:08:50;8.90;;;3.17;;
21657;SDS011;10990;48.174;9.782;2023-04-03T14:11:19;7.87;;;3.30;;
21657;SDS011;10990;48.174;9.782;2023-04-03T14:13:47;4.73;;;3.20;;
21657;SDS011;10990;48.174;9.782;2023-04-03T14:16:16;4.03;;;2.57;;
21657;SDS011;10990;48.174;9.782;2023-04-03T14:18:45;5.27;;;2.50;;
21657;SDS011;10990;48.174;9.782;2023-04-03T14:21:14;6.00;;;2.93;;
21657;SDS011;10990;48.174;9.782;2023-04-03T14:23:43;5.57;;;2.80;;
21657;SDS011;10990;48.174;9.782;2023-04-03T14:26:12;5.27;;;2.70;;
21657;SDS011;10990;48.174;9.782;2023-04-03T14:28:41;4.23;;;2.67;;
21657;SDS011;10990;48.174;9.782;2023-04-03T14:31:09;4.27;;;2.60;;
21657;SDS011;10990;48.174;9.782;2023-04-03T14:33:36;4.83;;;2.30;;
21657;SDS011;10990;48.174;9.782;2023-04-03T14:36:05;4.33;;;2.87;;
21657;SDS011;10990;48.174;9.782;2023-04-03T14:38:40;6.63;;;2.80;;
21657;SDS011;10990;48.174;9.782;2023-04-03T14:41:08;5.83;;;2.63;;
21657;SDS011;10990;48.174;9.782;2023-04-03T14:43:38;5.70;;;2.60;;
21657;SDS011;10990;48.174;9.782;2023-04-03T14:46:05;3.13;;;2.40;;
21657;SDS011;10990;48.174;9.782;2023-04-03T14:48:38;6.20;;;2.80;;
21657;SDS011;10990;48.174;9.782;2023-04-03T14:51:05;7.30;;;2.70;;
21657;SDS011;10990;48.174;9.782;2023-04-03T14:53:32;5.13;;;2.50;;
21657;SDS011;10990;48.174;9.782;2023-04-03T14:56:00;6.47;;;2.70;;
21657;SDS011;10990;48.174;9.782;2023-04-03T14:58:27;7.57;;;2.93;;
21657;SDS011;10990;48.174;9.782;2023-04-03T15:00:54;4.20;;;2.70;;
21657;SDS011;10990;48.174;9.782;2023-04-03T15:03:21;6.67;;;3.60;;
21657;SDS011;10990;48.174;9.782;2023-04-03T15:05:48;4.80;;;2.53;;
21657;SDS011;10990;48.174;9.782;2023-04-03T15:08:17;5.77;;;2.87;;
21657;SDS011;10990;48.174;9.782;2023-04-03T15:10:46;5.07;;;2.87;;
21657;SDS011;10990;48.174;9.782;2023-04-03T15:13:14;5.40;;;2.83;;
21657;SDS011;10990;48.174;9.782;2023-04-03T15:15:41;4.47;;;2.87;;
21657;SDS011;10990;48.174;9.782;2023-04-03T15:18:10;4.87;;;2.80;;
21657;SDS011;10990;48.174;9.782;2023-04-03T15:20:41;6.17;;;2.47;;